Time;durP1;ratioP1;P1;durP2;ratioP2;P2;SDS_P1;SDS_P2;PMS_P1;PMS_P2;Temp;Humidity;BMP_temperature;BMP_pressure;BME280_temperature;BME280_humidity;BME280_pressure;Samples;Min_cycle;Max_cycle;Signal;HPM_P1;HPM_P2
2023/09/27 00:00:17;;;;;;;7.55;4.90;;;;;;;14.40;100.00;101802.91;5089849;28;20069;-72
2023/09/27 00:02:43;;;;;;;7.80;4.88;;;;;;;14.40;100.00;101804.81;5081959;28;20042;-72
2023/09/27 00:05:10;;;;;;;6.70;4.68;;;;;;;14.34;100.00;101807.38;5093606;28;20027;-72
2023/09/27 00:07:40;;;;;;;7.75;4.85;;;;;;;14.36;100.00;101815.31;5092577;28;20093;-73
2023/09/27 00:10:09;;;;;;;6.90;4.88;;;;;;;14.26;100.00;101823.19;5082822;28;20107;-72
2023/09/27 00:12:35;;;;;;;7.50;5.00;;;;;;;14.30;100.00;101819.78;5091782;28;20525;-72
2023/09/27 00:15:02;;;;;;;8.02;4.85;;;;;;;14.23;100.00;101819.00;5093415;28;20024;-72
2023/09/27 00:17:28;;;;;;;7.70;4.47;;;;;;;14.23;100.00;101810.84;5089279;28;20029;-72
2023/09/27 00:19:53;;;;;;;7.10;4.55;;;;;;;14.24;100.00;101815.25;5084032;28;20078;-72
2023/09/27 00:22:19;;;;;;;5.90;4.45;;;;;;;14.18;100.00;101816.16;5085468;28;20036;-72
2023/09/27 00:24:44;;;;;;;5.15;4.55;;;;;;;14.18;100.00;101816.16;5089545;28;20058;-72
2023/09/27 00:27:12;;;;;;;6.72;4.90;;;;;;;14.21;100.00;101815.69;5082905;28;20057;-72
2023/09/27 00:29:38;;;;;;;7.25;4.68;;;;;;;14.19;100.00;101806.91;5089304;28;20031;-72
2023/09/27 00:32:04;;;;;;;8.02;4.85;;;;;;;14.22;100.00;101809.19;5090248;28;20433;-72
2023/09/27 00:34:29;;;;;;;7.15;4.45;;;;;;;14.14;100.00;101818.47;5082641;28;20361;-73
2023/09/27 00:36:55;;;;;;;7.55;4.85;;;;;;;14.20;100.00;101819.47;5085348;28;20042;-73
2023/09/27 00:39:20;;;;;;;8.63;4.80;;;;;;;14.17;100.00;101815.28;5086399;28;20119;-72
2023/09/27 00:41:45;;;;;;;6.30;4.30;;;;;;;14.25;100.00;101814.19;5087374;28;20034;-73
2023/09/27 00:44:11;;;;;;;7.25;4.70;;;;;;;14.20;100.00;101805.84;5093008;28;20474;-72
2023/09/27 00:46:36;;;;;;;8.02;4.90;;;;;;;14.20;100.00;101803.13;5084776;28;20475;-72
2023/09/27 00:49:02;;;;;;;6.38;4.68;;;;;;;14.17;100.00;101809.03;5083806;28;20043;-72
2023/09/27 00:51:28;;;;;;;7.85;5.07;;;;;;;14.16;100.00;101805.47;5081879;28;20036;-72
2023/09/27 00:53:55;;;;;;;6.25;4.50;;;;;;;14.06;100.00;101794.28;5092068;28;20043;-72
2023/09/27 00:56:21;;;;;;;7.65;5.28;;;;;;;14.11;100.00;101799.03;5077080;28;20047;-71
2023/09/27 00:58:47;;;;;;;7.95;5.35;;;;;;;14.10;100.00;101800.94;5089146;28;20036;-73
2023/09/27 01:01:13;;;;;;;5.38;4.85;;;;;;;14.05;100.00;101808.13;5087098;28;20043;-71
2023/09/27 01:03:39;;;;;;;6.45;5.03;;;;;;;14.05;100.00;101803.50;5089440;28;20024;-71
2023/09/27 01:06:04;;;;;;;8.60;5.45;;;;;;;14.03;100.00;101796.63;5091576;28;20417;-71
2023/09/27 01:08:30;;;;;;;5.40;4.88;;;;;;;14.03;100.00;101799.34;5092375;28;20086;-72
2023/09/27 01:10:55;;;;;;;7.03;5.75;;;;;;;13.99;100.00;101791.63;5091398;28;20404;-72
2023/09/27 01:13:21;;;;;;;7.72;5.45;;;;;;;13.92;100.00;101799.03;5075057;28;20028;-72
2023/09/27 01:15:47;;;;;;;8.57;5.15;;;;;;;13.90;100.00;101805.75;5078675;28;20028;-73
2023/09/27 01:18:13;;;;;;;7.95;5.72;;;;;;;13.90;100.00;101806.56;5078147;28;20037;-72
2023/09/27 01:20:38;;;;;;;5.60;5.00;;;;;;;13.90;100.00;101792.97;5083927;28;20385;-72
2023/09/27 01:23:05;;;;;;;5.78;4.78;;;;;;;13.89;100.00;101788.59;5078463;28;20090;-72
2023/09/27 01:25:38;;;;;;;6.32;4.85;;;;;;;13.88;100.00;101778.75;5088716;28;20032;-72
2023/09/27 01:28:06;;;;;;;5.90;5.10;;;;;;;13.79;100.00;101769.22;5079574;28;20036;-72
2023/09/27 01:30:32;;;;;;;8.70;5.55;;;;;;;13.83;100.00;101763.09;5089990;28;20028;-72
2023/09/27 01:33:08;;;;;;;7.85;5.03;;;;;;;14.03;100.00;101756.63;5087212;28;20042;-72
2023/09/27 01:35:42;;;;;;;6.40;5.78;;;;;;;13.85;100.00;101762.88;5089581;28;20099;-72
2023/09/27 01:38:09;;;;;;;9.30;5.78;;;;;;;13.88;100.00;101759.72;5070889;28;20391;-72
2023/09/27 01:40:37;;;;;;;10.23;6.32;;;;;;;13.80;100.00;101758.13;5086924;28;20020;-72
2023/09/27 01:43:03;;;;;;;10.15;5.90;;;;;;;13.88;100.00;101761.59;5090614;28;20039;-71
2023/09/27 01:45:29;;;;;;;7.10;5.80;;;;;;;13.86;100.00;101772.72;5091055;28;20028;-72
2023/09/27 01:47:55;;;;;;;8.20;5.70;;;;;;;13.79;100.00;101771.94;5091343;28;20109;-72
2023/09/27 01:50:24;;;;;;;6.95;6.10;;;;;;;13.86;100.00;101772.72;5089703;28;20036;-72
2023/09/27 01:52:50;;;;;;;6.18;5.57;;;;;;;13.74;100.00;101779.94;5086220;28;20097;-72
2023/09/27 01:55:16;;;;;;;9.57;5.75;;;;;;;13.75;100.00;101770.72;5092121;28;20048;-72
2023/09/27 01:57:41;;;;;;;7.50;5.35;;;;;;;13.72;100.00;101771.16;5076919;28;20033;-72
2023/09/27 02:00:11;;;;;;;8.52;5.63;;;;;;;13.63;100.00;101776.91;5075772;28;20430;-72
2023/09/27 02:02:37;;;;;;;6.68;5.72;;;;;;;13.65;100.00;101776.69;5079307;28;20038;-72
2023/09/27 02:05:03;;;;;;;10.57;5.90;;;;;;;13.65;100.00;101777.50;5095181;28;20032;-72
2023/09/27 02:07:28;;;;;;;7.28;5.55;;;;;;;13.62;100.00;101772.50;5093882;28;20032;-72
2023/09/27 02:09:53;;;;;;;8.32;5.50;;;;;;;13.56;100.00;101773.41;5093599;28;20036;-73
2023/09/27 02:12:19;;;;;;;5.78;5.20;;;;;;;13.54;100.00;101771.94;5088069;28;20044;-72
2023/09/27 02:14:44;;;;;;;8.27;5.70;;;;;;;13.45;100.00;101763.22;5075345;28;20112;-72
2023/09/27 02:17:10;;;;;;;6.43;5.28;;;;;;;13.48;100.00;101760.06;5077521;28;20029;-72
2023/09/27 02:19:35;;;;;;;7.47;5.82;;;;;;;13.51;100.00;101769.69;5093432;28;20020;-72
2023/09/27 02:22:01;;;;;;;7.32;5.55;;;;;;;13.51;100.00;101770.50;5091191;28;20169;-73
2023/09/27 02:24:27;;;;;;;8.23;5.50;;;;;;;13.41;100.00;101770.19;5095395;28;20036;-72
2023/09/27 02:26:53;;;;;;;6.80;5.50;;;;;;;13.45;100.00;101771.38;5093539;28;20039;-72
2023/09/27 02:29:19;;;;;;;8.73;5.28;;;;;;;13.44;100.00;101777.91;5094727;28;20028;-73
2023/09/27 02:31:44;;;;;;;6.57;5.60;;;;;;;13.40;100.00;101768.50;5086468;28;20025;-74
2023/09/27 02:34:10;;;;;;;7.93;5.72;;;;;;;13.42;100.00;101782.72;5092633;28;20055;-73
2023/09/27 02:36:35;;;;;;;6.53;5.60;;;;;;;13.39;100.00;101780.44;5092939;28;20024;-71
2023/09/27 02:39:00;;;;;;;8.82;5.80;;;;;;;13.37;100.00;101775.22;5088567;28;20032;-72
2023/09/27 02:41:26;;;;;;;7.80;5.75;;;;;;;13.38;100.00;101782.31;5094150;28;20031;-72
2023/09/27 02:43:51;;;;;;;8.07;5.75;;;;;;;13.35;100.00;101782.78;5093185;28;20043;-72
2023/09/27 02:46:17;;;;;;;8.15;5.93;;;;;;;13.30;100.00;101775.25;5093009;28;20029;-72
2023/09/27 02:48:43;;;;;;;8.90;5.82;;;;;;;13.33;100.00;101781.28;5077865;28;20471;-72
2023/09/27 02:51:08;;;;;;;8.13;6.10;;;;;;;13.32;100.00;101774.19;5074794;28;20026;-71
2023/09/27 02:53:34;;;;;;;8.00;5.65;;;;;;;13.27;100.00;101772.97;5075736;28;20468;-72
2023/09/27 02:55:59;;;;;;;9.15;5.50;;;;;;;13.22;100.00;101780.94;5093660;28;20038;-71
2023/09/27 02:58:25;;;;;;;9.15;5.72;;;;;;;13.27;100.00;101775.69;5093186;28;20425;-71
2023/09/27 03:00:52;;;;;;;7.40;5.88;;;;;;;13.24;100.00;101776.13;5090573;28;20024;-72
2023/09/27 03:03:19;;;;;;;7.18;5.40;;;;;;;13.13;100.00;101771.38;5093441;28;20035;-72
2023/09/27 03:05:44;;;;;;;7.50;5.82;;;;;;;13.10;100.00;101771.81;5091208;28;20413;-72
2023/09/27 03:08:10;;;;;;;8.20;5.60;;;;;;;13.10;100.00;101769.97;5082292;28;20129;-72
2023/09/27 03:10:42;;;;;;;10.18;5.65;;;;;;;13.16;100.00;101776.38;5094580;28;20593;-71
2023/09/27 03:13:09;;;;;;;5.78;5.18;;;;;;;13.11;100.00;101765.34;5093380;28;20094;-72
2023/09/27 03:15:37;;;;;;;7.38;5.55;;;;;;;13.07;100.00;101769.53;5089069;28;20104;-72
2023/09/27 03:18:03;;;;;;;10.85;5.93;;;;;;;13.00;100.00;101772.31;5090932;28;20065;-72
2023/09/27 03:20:28;;;;;;;6.82;5.43;;;;;;;13.04;100.00;101770.00;5093314;28;20039;-71
2023/09/27 03:22:55;;;;;;;7.43;6.20;;;;;;;13.01;100.00;101765.00;5091649;28;20032;-72
2023/09/27 03:25:20;;;;;;;6.90;6.18;;;;;;;13.01;100.00;101771.25;5093208;28;20030;-72
2023/09/27 03:27:46;;;;;;;7.47;6.03;;;;;;;13.02;100.00;101782.97;5091046;28;20099;-72
2023/09/27 03:30:12;;;;;;;7.50;5.85;;;;;;;12.95;100.00;101783.00;5092976;28;20039;-72
2023/09/27 03:32:37;;;;;;;14.13;6.32;;;;;;;12.98;100.00;101777.13;5076273;28;20042;-72
2023/09/27 03:35:03;;;;;;;8.90;5.82;;;;;;;13.02;100.00;101791.94;5087289;28;20071;-71
2023/09/27 03:37:30;;;;;;;7.35;5.47;;;;;;;13.00;100.00;101785.06;5080581;28;20414;-71
2023/09/27 03:39:56;;;;;;;8.35;5.60;;;;;;;12.98;100.00;101792.59;5093257;28;20036;-73
2023/09/27 03:42:22;;;;;;;8.05;5.88;;;;;;;12.99;100.00;101795.09;5093464;28;20028;-70
2023/09/27 03:44:48;;;;;;;7.45;5.50;;;;;;;12.98;100.00;101801.56;5094654;28;20116;-71
2023/09/27 03:47:14;;;;;;;8.02;5.70;;;;;;;12.89;100.00;101790.16;5093235;28;20035;-70
2023/09/27 03:49:41;;;;;;;7.68;5.65;;;;;;;12.97;100.00;101777.34;5085618;28;20037;-71
2023/09/27 03:52:09;;;;;;;8.30;5.68;;;;;;;12.92;100.00;101769.84;5080313;28;20042;-71
2023/09/27 03:54:35;;;;;;;11.52;5.35;;;;;;;13.12;100.00;101758.88;5092866;28;20028;-72
2023/09/27 03:57:00;;;;;;;9.02;5.80;;;;;;;12.96;100.00;101768.38;5078843;28;20111;-72
2023/09/27 03:59:25;;;;;;;6.85;5.72;;;;;;;12.88;100.00;101768.63;5072525;28;20052;-73
2023/09/27 04:01:51;;;;;;;6.68;5.57;;;;;;;12.92;100.00;101772.56;5070570;28;20365;-71
2023/09/27 04:04:17;;;;;;;8.20;5.80;;;;;;;12.83;100.00;101788.31;5087352;28;20068;-71
2023/09/27 04:06:43;;;;;;;7.65;4.82;;;;;;;13.03;100.00;101792.75;5080339;28;20039;-71
2023/09/27 04:09:09;;;;;;;9.52;6.05;;;;;;;12.85;100.00;101797.06;5090339;28;20036;-72
2023/09/27 04:11:35;;;;;;;10.38;6.10;;;;;;;12.80;100.00;101805.00;5092926;28;20196;-71
2023/09/27 04:14:00;;;;;;;9.13;6.00;;;;;;;12.84;100.00;101813.56;5087586;28;20149;-71
2023/09/27 04:16:28;;;;;;;9.40;6.00;;;;;;;12.80;100.00;101813.16;5080690;28;20020;-71
2023/09/27 04:18:54;;;;;;;7.30;5.82;;;;;;;12.81;100.00;101803.97;5092037;28;20036;-71
2023/09/27 04:21:19;;;;;;;7.53;5.60;;;;;;;12.82;100.00;101794.78;5079865;28;20459;-71
2023/09/27 04:23:55;;;;;;;7.35;5.97;;;;;;;12.72;100.00;101806.09;5084122;28;20036;-72
2023/09/27 04:26:20;;;;;;;6.93;6.13;;;;;;;12.72;100.00;101818.84;5073204;28;20028;-72
2023/09/27 04:28:45;;;;;;;7.28;5.72;;;;;;;12.74;100.00;101819.47;5087280;28;20123;-72
2023/09/27 04:31:11;;;;;;;12.10;6.22;;;;;;;12.74;100.00;101823.03;5091760;28;20024;-72
2023/09/27 04:33:36;;;;;;;7.68;5.80;;;;;;;12.68;100.00;101821.19;5087206;28;20029;-72
2023/09/27 04:36:02;;;;;;;10.07;5.80;;;;;;;12.68;100.00;101828.47;5091835;28;20035;-73
2023/09/27 04:38:27;;;;;;;6.95;5.88;;;;;;;12.77;100.00;101832.59;5092757;28;20114;-71
2023/09/27 04:40:52;;;;;;;7.93;5.63;;;;;;;12.71;100.00;101834.31;5092585;28;20040;-70
2023/09/27 04:43:18;;;;;;;9.55;6.30;;;;;;;12.66;100.00;101833.28;5093083;28;20139;-71
2023/09/27 04:45:43;;;;;;;6.50;5.80;;;;;;;12.63;100.00;101822.84;5091328;28;20028;-71
2023/09/27 04:48:09;;;;;;;8.75;5.60;;;;;;;12.65;100.00;101791.75;5092233;28;20467;-73
2023/09/27 04:50:34;;;;;;;9.23;5.90;;;;;;;12.63;100.00;101780.22;5091249;28;20039;-71
2023/09/27 04:53:00;;;;;;;7.85;6.03;;;;;;;12.56;100.00;101791.13;5079553;28;20032;-71
2023/09/27 04:55:25;;;;;;;8.57;5.63;;;;;;;12.62;100.00;101804.91;5078075;28;20031;-78
2023/09/27 04:57:50;;;;;;;9.45;6.00;;;;;;;12.64;100.00;101813.69;5087081;28;20036;-70
2023/09/27 05:00:19;;;;;;;8.43;6.25;;;;;;;12.66;100.00;101806.13;5072605;28;20020;-69
2023/09/27 05:02:48;;;;;;;9.50;6.13;;;;;;;12.63;100.00;101812.00;5089708;28;20063;-70
2023/09/27 05:05:13;;;;;;;8.07;6.10;;;;;;;12.53;100.00;101807.84;5085764;28;20033;-70
2023/09/27 05:07:40;;;;;;;8.57;5.90;;;;;;;12.53;100.00;101807.84;5082114;28;20050;-70
2023/09/27 05:10:06;;;;;;;10.27;6.25;;;;;;;12.55;100.00;101813.06;5083917;28;20480;-69
2023/09/27 05:12:31;;;;;;;8.23;5.63;;;;;;;12.53;100.00;101807.84;5090149;28;20056;-70
2023/09/27 05:14:58;;;;;;;7.50;5.65;;;;;;;12.52;100.00;101798.03;5091613;28;20344;-70
2023/09/27 05:17:24;;;;;;;7.28;4.72;;;;;;;12.73;100.00;101793.38;5091781;28;20089;-70
2023/09/27 05:19:49;;;;;;;6.07;4.30;;;;;;;12.77;100.00;101800.88;5092322;28;20020;-70
2023/09/27 05:22:19;;;;;;;7.10;5.72;;;;;;;12.54;100.00;101795.94;5089314;28;20051;-70
2023/09/27 05:24:44;;;;;;;8.02;5.97;;;;;;;12.54;100.00;101781.53;5080817;28;20028;-70
2023/09/27 05:27:09;;;;;;;9.43;6.18;;;;;;;12.61;100.00;101782.34;5089879;28;20028;-70
2023/09/27 05:29:35;;;;;;;8.30;6.28;;;;;;;12.51;100.00;101781.97;5094795;28;20020;-70
2023/09/27 05:32:01;;;;;;;8.13;5.85;;;;;;;12.57;100.00;101791.97;5094675;28;20107;-69
2023/09/27 05:34:30;;;;;;;11.30;6.40;;;;;;;12.57;100.00;101794.69;5095872;28;20111;-70
2023/09/27 05:36:56;;;;;;;8.50;6.32;;;;;;;12.57;100.00;101798.22;5094653;28;20047;-71
2023/09/27 05:39:22;;;;;;;12.68;5.30;;;;;;;12.73;100.00;101796.09;5095492;28;20031;-71
2023/09/27 05:41:47;;;;;;;9.15;6.35;;;;;;;12.59;100.00;101796.13;5093766;28;20051;-71
2023/09/27 05:44:12;;;;;;;7.85;6.88;;;;;;;12.62;100.00;101796.75;5076644;28;20037;-71
2023/09/27 05:46:39;;;;;;;10.27;6.78;;;;;;;12.59;100.00;101790.72;5089223;28;20037;-72
2023/09/27 05:49:08;;;;;;;9.05;6.20;;;;;;;12.57;100.00;101787.34;5096094;28;20039;-71
2023/09/27 05:51:33;;;;;;;10.10;6.00;;;;;;;12.58;100.00;101789.03;5101096;28;20020;-72
2023/09/27 05:53:58;;;;;;;10.02;5.35;;;;;;;12.72;100.00;101781.66;5095871;28;20432;-71
2023/09/27 05:56:24;;;;;;;9.30;6.18;;;;;;;12.59;100.00;101779.84;5092531;28;20046;-69
2023/09/27 05:58:49;;;;;;;10.95;6.60;;;;;;;12.49;100.00;101778.66;5095108;28;20418;-73
2023/09/27 06:01:19;;;;;;;9.15;6.68;;;;;;;12.48;100.00;101772.34;5091780;28;20529;-73
2023/09/27 06:03:45;;;;;;;12.00;6.32;;;;;;;12.47;100.00;101776.16;5094540;28;20036;-73
2023/09/27 06:06:12;;;;;;;9.55;6.70;;;;;;;12.47;100.00;101781.56;5095178;28;20128;-73
2023/09/27 06:08:37;;;;;;;10.05;6.80;;;;;;;12.57;100.00;101787.34;5074956;28;20036;-74
2023/09/27 06:11:03;;;;;;;9.93;6.63;;;;;;;12.63;100.00;101777.53;5080567;28;20039;-74
2023/09/27 06:13:29;;;;;;;8.15;6.65;;;;;;;12.60;100.00;101775.25;5084488;28;20100;-74
2023/09/27 06:15:54;;;;;;;11.40;6.93;;;;;;;12.66;100.00;101778.97;5084305;28;20031;-78
2023/09/27 06:18:21;;;;;;;10.65;6.93;;;;;;;12.56;100.00;101779.44;5079744;28;20056;-74
2023/09/27 06:20:47;;;;;;;9.45;6.70;;;;;;;12.67;100.00;101781.47;5090727;28;20463;-74
2023/09/27 06:23:13;;;;;;;14.10;6.93;;;;;;;12.73;100.00;101768.94;5090820;28;20502;-74
2023/09/27 06:25:43;;;;;;;12.82;7.00;;;;;;;12.71;100.00;101768.28;5094777;28;20142;-74
2023/09/27 06:28:11;;;;;;;9.05;6.47;;;;;;;12.84;100.00;101761.97;5095637;28;20356;-74
2023/09/27 06:30:37;;;;;;;11.90;6.78;;;;;;;12.89;100.00;101757.56;5094444;28;20024;-74
2023/09/27 06:33:03;;;;;;;9.95;6.57;;;;;;;13.00;100.00;101756.03;5093501;28;20040;-72
2023/09/27 06:35:28;;;;;;;15.52;7.32;;;;;;;13.04;100.00;101756.41;5082862;28;20463;-71
2023/09/27 06:37:54;;;;;;;11.93;7.65;;;;;;;13.15;100.00;101758.44;5076876;28;20111;-75
2023/09/27 06:40:22;;;;;;;14.52;8.10;;;;;;;13.19;100.00;101761.53;5076781;28;20055;-71
2023/09/27 06:42:48;;;;;;;12.00;7.43;;;;;;;13.28;100.00;101769.19;5086747;28;20036;-70
2023/09/27 06:45:14;;;;;;;9.23;7.90;;;;;;;13.36;100.00;101762.69;5093284;28;20031;-71
2023/09/27 06:47:41;;;;;;;13.75;7.63;;;;;;;13.46;100.00;101765.72;5092591;28;20064;-73
2023/09/27 06:50:08;;;;;;;13.32;8.13;;;;;;;13.56;100.00;101767.97;5084467;28;20032;-74
2023/09/27 06:52:34;;;;;;;15.85;8.80;;;;;;;13.60;100.00;101785.50;5090835;28;20060;-71
2023/09/27 06:55:00;;;;;;;12.23;8.48;;;;;;;13.65;100.00;101787.56;5088432;28;20040;-75
2023/09/27 06:57:26;;;;;;;11.25;8.85;;;;;;;13.73;100.00;101789.97;5083119;28;20050;-70
2023/09/27 06:59:51;;;;;;;11.07;8.90;;;;;;;13.78;100.00;101789.31;5079551;28;20054;-72
2023/09/27 07:02:16;;;;;;;15.65;9.30;;;;;;;13.78;100.00;101776.56;5072494;28;20029;-70
2023/09/27 07:04:42;;;;;;;11.68;8.82;;;;;;;13.85;100.00;101775.66;5074443;28;20025;-71
2023/09/27 07:07:09;;;;;;;11.82;8.45;;;;;;;13.89;100.00;101772.28;5074476;28;20029;-71
2023/09/27 07:09:34;;;;;;;11.15;7.75;;;;;;;13.90;100.00;101767.66;5074408;28;20032;-71
2023/09/27 07:12:00;;;;;;;11.07;7.85;;;;;;;13.98;100.00;101764.66;5089184;28;20055;-72
2023/09/27 07:14:25;;;;;;;12.00;8.95;;;;;;;13.94;100.00;101769.69;5074356;28;20028;-72
2023/09/27 07:16:50;;;;;;;11.18;8.20;;;;;;;13.98;100.00;101781.81;5074078;28;20461;-71
2023/09/27 07:19:17;;;;;;;8.63;7.72;;;;;;;14.00;100.00;101779.69;5074027;28;20024;-72
2023/09/27 07:21:43;;;;;;;9.70;8.02;;;;;;;14.05;100.00;101783.63;5072539;28;20055;-71
2023/09/27 07:24:09;;;;;;;11.50;8.25;;;;;;;14.04;100.00;101785.50;5074001;28;20036;-72
2023/09/27 07:26:35;;;;;;;12.55;8.73;;;;;;;14.04;100.00;101784.66;5074243;28;20025;-72
2023/09/27 07:29:01;;;;;;;14.88;9.10;;;;;;;14.03;100.00;101783.84;5072555;28;20380;-72
2023/09/27 07:31:26;;;;;;;14.57;9.13;;;;;;;14.09;100.00;101782.94;5074097;28;20029;-72
2023/09/27 07:33:55;;;;;;;11.68;9.50;;;;;;;14.07;100.00;101786.94;5073555;28;20064;-71
2023/09/27 07:36:24;;;;;;;14.75;9.45;;;;;;;14.07;100.00;101795.09;5073978;28;20479;-71
2023/09/27 07:38:50;;;;;;;12.93;9.63;;;;;;;14.12;100.00;101790.66;5073729;28;20056;-71
2023/09/27 07:41:16;;;;;;;14.80;8.85;;;;;;;14.14;100.00;101784.97;5072590;28;20115;-71
2023/09/27 07:43:41;;;;;;;12.80;9.00;;;;;;;14.16;100.00;101782.84;5073931;28;20111;-71
2023/09/27 07:46:07;;;;;;;11.88;8.13;;;;;;;14.21;100.00;101780.31;5089188;28;20028;-71
2023/09/27 07:48:35;;;;;;;12.73;7.90;;;;;;;14.25;100.00;101770.63;5089404;28;20482;-71
2023/09/27 07:51:01;;;;;;;15.10;7.88;;;;;;;14.31;100.00;101775.16;5072915;28;20475;-71
2023/09/27 07:53:26;;;;;;;10.90;6.32;;;;;;;14.43;100.00;101782.56;5072756;28;20028;-71
2023/09/27 07:55:53;;;;;;;14.05;8.45;;;;;;;14.42;100.00;101792.63;5073449;28;20024;-70
2023/09/27 07:58:18;;;;;;;10.52;8.32;;;;;;;14.44;100.00;101790.50;5073590;28;20040;-70
2023/09/27 08:00:44;;;;;;;14.77;8.45;;;;;;;14.51;100.00;101795.88;5070963;28;20240;-71
2023/09/27 08:03:10;;;;;;;14.90;9.27;;;;;;;14.56;100.00;101797.91;5073428;28;20082;-71
2023/09/27 08:05:42;;;;;;;13.98;8.65;;;;;;;14.60;100.00;101794.50;5073508;28;20060;-71
2023/09/27 08:08:10;;;;;;;14.13;9.63;;;;;;;14.68;100.00;101791.50;5088720;28;20085;-71
2023/09/27 08:10:35;;;;;;;12.82;9.82;;;;;;;14.72;100.00;101800.06;5073617;28;20380;-72
2023/09/27 08:13:00;;;;;;;16.67;9.38;;;;;;;14.77;100.00;101802.09;5088491;28;20044;-72
2023/09/27 08:15:26;;;;;;;14.23;9.70;;;;;;;14.88;100.00;101795.84;5088964;28;20573;-71
2023/09/27 08:17:52;;;;;;;17.42;9.90;;;;;;;14.91;100.00;101795.38;5072994;28;20028;-71
2023/09/27 08:20:18;;;;;;;16.75;9.50;;;;;;;14.98;100.00;101801.56;5073182;28;20060;-71
2023/09/27 08:22:44;;;;;;;13.82;9.60;;;;;;;15.05;100.00;101810.50;5073203;28;20043;-72
2023/09/27 08:25:16;;;;;;;18.92;9.55;;;;;;;15.14;100.00;101821.06;5071137;28;20032;-71
2023/09/27 08:27:42;;;;;;;16.20;9.32;;;;;;;15.21;100.00;101821.81;5088305;28;20031;-72
2023/09/27 08:30:09;;;;;;;16.25;10.05;;;;;;;15.27;100.00;101817.31;5072534;28;20029;-72
2023/09/27 08:32:34;;;;;;;15.60;9.52;;;;;;;15.30;100.00;101811.41;5071515;28;20036;-72
2023/09/27 08:35:02;;;;;;;16.05;9.23;;;;;;;15.36;100.00;101814.00;5072928;28;20036;-72
2023/09/27 08:37:28;;;;;;;19.38;9.80;;;;;;;15.45;100.00;101814.50;5088482;28;20032;-72
2023/09/27 08:39:53;;;;;;;16.38;9.73;;;;;;;15.55;100.00;101822.09;5072739;28;20121;-72
2023/09/27 08:42:20;;;;;;;13.23;9.80;;;;;;;15.64;100.00;101826.19;5072571;28;20479;-72
2023/09/27 08:44:47;;;;;;;15.25;9.25;;;;;;;15.68;100.00;101824.63;5072714;28;20025;-73
2023/09/27 08:47:13;;;;;;;16.77;9.15;;;;;;;15.72;100.00;101811.34;5072472;28;20391;-71
2023/09/27 08:49:38;;;;;;;12.32;8.57;;;;;;;15.77;100.00;101806.88;5072722;28;20036;-72
2023/09/27 08:52:06;;;;;;;11.35;8.70;;;;;;;15.86;100.00;101806.53;5072042;28;20456;-72
2023/09/27 08:54:32;;;;;;;12.00;8.50;;;;;;;15.87;100.00;101800.84;5072686;28;20031;-72
2023/09/27 08:56:58;;;;;;;11.27;8.30;;;;;;;16.00;100.00;101802.47;5072560;28;20058;-71
2023/09/27 08:59:24;;;;;;;10.27;7.65;;;;;;;16.12;100.00;101795.13;5072632;28;20123;-71
2023/09/27 09:01:52;;;;;;;11.13;7.88;;;;;;;16.26;100.00;101806.63;5085269;28;20124;-72
2023/09/27 09:04:17;;;;;;;11.90;8.00;;;;;;;16.45;100.00;101804.56;5072197;28;20032;-72
2023/09/27 09:06:43;;;;;;;11.35;7.47;;;;;;;16.44;100.00;101808.38;5072685;28;20025;-72
2023/09/27 09:09:11;;;;;;;10.80;7.47;;;;;;;16.52;100.00;101803.63;5070934;28;20028;-72
2023/09/27 09:11:54;;;;;;;12.93;7.07;;;;;;;16.57;100.00;101798.25;5072178;28;20051;-72
2023/09/27 09:14:37;;;;;;;11.27;6.55;;;;;;;16.65;100.00;101787.75;5072309;28;20048;-72
2023/09/27 09:17:02;;;;;;;;;;;;;;;16.69;100.00;101790.84;5072536;28;20029;-72
2023/09/27 09:19:31;;;;;;;13.95;6.35;;;;;;;16.77;100.00;101793.19;5072234;28;19915;-72
2023/09/27 09:22:07;;;;;;;9.20;6.00;;;;;;;16.81;100.00;101791.59;5072039;28;20431;-72
2023/09/27 09:24:35;;;;;;;16.77;6.53;;;;;;;16.91;100.00;101793.75;5072109;28;20395;-71
2023/09/27 09:27:13;;;;;;;16.98;6.60;;;;;;;16.94;100.00;101789.69;5071743;28;20103;-71
2023/09/27 09:29:53;;;;;;;10.30;6.10;;;;;;;17.00;100.00;101789.56;5072501;28;20104;-71
2023/09/27 09:32:25;;;;;;;12.02;6.38;;;;;;;17.06;100.00;101793.22;5074771;28;20016;-72
2023/09/27 09:34:52;;;;;;;11.15;6.85;;;;;;;17.11;100.00;101784.28;5073744;28;20107;-72
2023/09/27 09:37:23;;;;;;;8.48;6.32;;;;;;;17.11;100.00;101784.28;5087604;28;20028;-72
2023/09/27 09:39:53;;;;;;;14.00;7.17;;;;;;;17.06;100.00;101787.75;5072139;28;20024;-71
2023/09/27 09:42:31;;;;;;;12.83;7.37;;;;;;;17.07;100.00;101781.19;5072309;28;20099;-72
2023/09/27 09:45:10;;;;;;;8.73;6.80;;;;;;;17.15;100.00;101777.22;5071746;28;20044;-71
2023/09/27 09:47:37;;;;;;;11.35;6.97;;;;;;;17.20;100.00;101769.13;5072076;28;20107;-72
2023/09/27 09:50:09;;;;;;;11.82;7.22;;;;;;;17.29;100.00;101766.81;5071798;28;20103;-71
2023/09/27 09:52:39;;;;;;;14.07;7.72;;;;;;;17.35;100.00;101760.34;5072051;28;20115;-71
2023/09/27 09:55:11;;;;;;;11.25;7.25;;;;;;;17.52;100.00;101758.41;5071399;28;20368;-72
2023/09/27 09:57:41;;;;;;;8.80;6.93;;;;;;;17.69;100.00;101752.09;5071914;28;20039;-71
2023/09/27 10:00:17;;;;;;;16.02;7.13;;;;;;;17.76;100.00;101750.03;5071788;28;20479;-72
2023/09/27 10:02:51;;;;;;;12.27;7.00;;;;;;;17.91;100.00;101749.44;5070037;28;20024;-73
2023/09/27 10:05:23;;;;;;;12.68;7.35;;;;;;;17.97;100.00;101755.81;5071469;28;20036;-71
2023/09/27 10:07:50;;;;;;;11.18;7.47;;;;;;;18.01;100.00;101741.38;5072543;28;20037;-71
2023/09/27 10:10:19;;;;;;;13.25;7.88;;;;;;;18.03;100.00;101741.13;5071845;28;20028;-72
2023/09/27 10:12:47;;;;;;;11.38;7.70;;;;;;;18.01;100.00;101743.25;5071311;28;20048;-72
2023/09/27 10:15:17;;;;;;;12.27;7.50;;;;;;;17.98;100.00;101752.00;5072336;28;20546;-72
2023/09/27 10:17:42;;;;;;;12.77;7.72;;;;;;;18.05;100.00;101755.38;5075157;28;20098;-72
2023/09/27 10:20:13;;;;;;;12.45;7.90;;;;;;;18.16;100.00;101759.94;5074874;28;20460;-72
2023/09/27 10:22:43;;;;;;;10.57;7.30;;;;;;;18.27;100.00;101765.50;5075241;28;20070;-72
2023/09/27 10:25:24;;;;;;;8.00;7.20;;;;;;;18.30;100.00;101752.16;5074851;28;20073;-73
2023/09/27 10:27:58;;;;;;;11.40;6.50;;;;;;;18.34;100.00;101742.34;5073747;28;20070;-72
2023/09/27 10:30:23;;;;;;;9.10;7.00;;;;;;;18.43;100.00;101720.78;5075092;28;20017;-72
2023/09/27 10:33:14;;;;;;;10.43;6.90;;;;;;;18.48;100.00;101718.13;5074906;28;20046;-73
2023/09/27 10:35:41;;;;;;;10.43;6.50;;;;;;;18.53;100.00;101729.13;5073683;28;20028;-72
2023/09/27 10:38:09;;;;;;;9.93;6.47;;;;;;;18.57;100.00;101733.00;5074783;28;20040;-71
2023/09/27 10:40:42;;;;;;;10.13;6.38;;;;;;;18.62;100.00;101732.25;5073560;28;20036;-72
2023/09/27 10:43:07;;;;;;;10.63;6.93;;;;;;;18.67;100.00;101720.50;5074713;28;20077;-72
2023/09/27 10:45:33;;;;;;;8.68;6.22;;;;;;;18.72;100.00;101721.38;5090317;28;20020;-72
2023/09/27 10:48:18;;;;;;;10.73;6.90;;;;;;;18.86;100.00;101716.34;5074698;28;20033;-73
2023/09/27 10:50:56;;;;;;;13.05;6.38;;;;;;;18.98;100.00;101701.59;5073573;28;20072;-71
2023/09/27 10:53:22;;;;;;;11.73;6.35;;;;;;;19.05;100.00;101703.06;5074726;28;20021;-71
2023/09/27 10:55:47;;;;;;;8.73;5.60;;;;;;;19.05;100.00;101688.50;5074509;28;20050;-72
2023/09/27 10:58:16;;;;;;;9.90;5.85;;;;;;;19.08;100.00;101691.56;5073015;28;20031;-73
2023/09/27 11:00:57;;;;;;;10.35;6.22;;;;;;;19.16;100.00;101684.78;5071990;28;20643;-72
2023/09/27 11:03:33;;;;;;;;;;;;;;;19.20;100.00;101688.63;5075170;28;20055;-72
2023/09/27 11:06:12;;;;;;;9.35;5.47;;;;;;;19.29;100.00;101688.97;5074431;28;19951;-73
2023/09/27 11:08:38;;;;;;;8.10;5.68;;;;;;;19.24;100.00;101687.03;5089836;28;20321;-72
2023/09/27 11:11:07;;;;;;;12.65;5.70;;;;;;;19.24;100.00;101689.75;5073839;28;20375;-73
2023/09/27 11:13:33;;;;;;;9.00;5.30;;;;;;;19.13;100.00;101675.16;5074173;28;20029;-72